createdAt,value
2022-10-21T00:00:18.869Z,12.85
2022-10-21T00:02:46.137Z,14.55
2022-10-21T00:05:13.153Z,12.63
2022-10-21T00:07:40.596Z,14.80
2022-10-21T00:10:08.720Z,14.98
2022-10-21T00:12:36.780Z,15.48
2022-10-21T00:15:08.423Z,13.13
2022-10-21T00:17:37.651Z,16.83
2022-10-21T00:20:06.099Z,13.30
2022-10-21T00:22:32.834Z,10.82
2022-10-21T00:24:59.570Z,14.63
2022-10-21T00:27:26.326Z,14.13
2022-10-21T00:29:53.787Z,12.55
2022-10-21T00:32:20.575Z,12.95
2022-10-21T00:34:48.495Z,14.57
2022-10-21T00:37:15.773Z,13.75
2022-10-21T00:39:42.474Z,14.05
2022-10-21T00:42:18.950Z,12.27
2022-10-21T00:45:06.302Z,10.88
2022-10-21T00:47:53.845Z,8.93
2022-10-21T00:50:36.437Z,11.35
2022-10-21T00:53:10.330Z,9.40
2022-10-21T00:55:41.064Z,13.10
2022-10-21T00:58:08.544Z,13.32
2022-10-21T01:00:35.397Z,19.33
2022-10-21T01:03:02.264Z,11.77
2022-10-21T01:05:31.300Z,12.57
2022-10-21T01:07:58.635Z,11.93
2022-10-21T01:10:25.344Z,14.27
2022-10-21T01:13:16.733Z,11.18
2022-10-21T01:15:58.819Z,20.25
2022-10-21T01:18:47.373Z,17.98
2022-10-21T01:21:30.039Z,19.50
2022-10-21T01:24:16.175Z,15.35
2022-10-21T01:26:51.896Z,15.10
2022-10-21T01:29:32.127Z,13.43
2022-10-21T01:32:20.234Z,11.35
2022-10-21T01:35:16.004Z,17.13
2022-10-21T01:37:52.027Z,15.80
2022-10-21T01:40:24.260Z,14.77
2022-10-21T01:42:56.678Z,13.68
2022-10-21T01:45:26.470Z,12.45
2022-10-21T01:47:57.061Z,9.98
2022-10-21T01:50:30.070Z,13.18
2022-10-21T01:53:01.861Z,16.05
2022-10-21T01:55:32.003Z,12.45
2022-10-21T01:58:14.792Z,13.20
2022-10-21T02:00:43.530Z,10.63
2022-10-21T02:03:13.732Z,11.40
2022-10-21T02:05:40.749Z,9.80
2022-10-21T02:08:08.088Z,11.40
2022-10-21T02:10:42.415Z,13.32
2022-10-21T02:13:13.255Z,10.73
2022-10-21T02:15:42.076Z,10.15
2022-10-21T02:18:18.957Z,12.82
2022-10-21T02:20:48.646Z,10.05
2022-10-21T02:23:19.277Z,10.52
2022-10-21T02:25:49.357Z,11.27
2022-10-21T02:28:16.863Z,10.98
2022-10-21T02:31:03.741Z,11.30
2022-10-21T02:33:45.141Z,11.00
2022-10-21T02:36:17.045Z,9.68
2022-10-21T02:38:58.284Z,13.75
2022-10-21T02:41:28.300Z,11.75
2022-10-21T02:44:03.360Z,13.05
2022-10-21T02:46:43.099Z,11.05
2022-10-21T02:49:10.180Z,10.80
2022-10-21T02:51:37.053Z,8.57
2022-10-21T02:54:03.826Z,8.27
2022-10-21T02:56:30.778Z,7.60
2022-10-21T02:58:57.775Z,7.57
2022-10-21T03:01:24.654Z,8.02
2022-10-21T03:03:51.461Z,7.75
2022-10-21T03:06:18.373Z,8.73
2022-10-21T03:08:45.479Z,9.60
2022-10-21T03:11:12.284Z,8.73
2022-10-21T03:13:39.034Z,8.43
2022-10-21T03:16:06.120Z,9.23
2022-10-21T03:18:32.864Z,6.90
2022-10-21T03:20:59.611Z,13.52
2022-10-21T03:23:26.363Z,8.13
2022-10-21T03:25:53.452Z,8.73
2022-10-21T03:28:20.271Z,10.60
2022-10-21T03:30:47.092Z,8.13
2022-10-21T03:33:13.852Z,8.23
2022-10-21T03:35:41.567Z,8.63
2022-10-21T03:38:08.341Z,6.00
2022-10-21T03:40:35.095Z,10.57
2022-10-21T03:43:01.821Z,9.40
2022-10-21T03:45:28.577Z,8.88
2022-10-21T03:47:55.427Z,11.20
2022-10-21T03:50:26.103Z,10.00
2022-10-21T03:52:54.652Z,12.30
2022-10-21T03:55:24.215Z,13.20
2022-10-21T03:57:52.639Z,9.98
2022-10-21T04:00:20.305Z,10.35
2022-10-21T04:02:47.120Z,14.25
2022-10-21T04:05:14.752Z,17.15
2022-10-21T04:07:42.306Z,12.48
2022-10-21T04:10:09.910Z,11.13
2022-10-21T04:12:37.745Z,12.50
2022-10-21T04:15:06.738Z,14.02
2022-10-21T04:17:34.047Z,13.35
2022-10-21T04:20:00.810Z,8.73
2022-10-21T04:22:27.525Z,12.07
2022-10-21T04:24:54.725Z,11.02
2022-10-21T04:27:21.448Z,11.93
2022-10-21T04:29:48.543Z,10.48
2022-10-21T04:32:15.289Z,14.00
2022-10-21T04:34:42.048Z,14.65
2022-10-21T04:37:08.806Z,15.50
2022-10-21T04:39:35.493Z,16.58
2022-10-21T04:42:02.220Z,16.30
2022-10-21T04:44:28.991Z,14.35
2022-10-21T04:46:55.756Z,12.57
2022-10-21T04:49:22.637Z,13.40
2022-10-21T04:51:49.436Z,11.57
2022-10-21T04:54:16.230Z,16.15
2022-10-21T04:56:43.353Z,11.68
2022-10-21T04:59:10.708Z,17.67
2022-10-21T05:01:37.898Z,17.50
2022-10-21T05:04:04.787Z,13.18
2022-10-21T05:06:32.007Z,15.18
2022-10-21T05:08:58.893Z,16.17
2022-10-21T05:11:25.731Z,14.23
2022-10-21T05:13:52.470Z,17.40
2022-10-21T05:16:19.669Z,24.27
2022-10-21T05:18:46.436Z,27.10
2022-10-21T05:21:13.277Z,22.27
2022-10-21T05:23:40.023Z,19.27
2022-10-21T05:26:07.210Z,23.52
2022-10-21T05:28:34.075Z,19.75
2022-10-21T05:31:01.229Z,16.35
2022-10-21T05:33:28.529Z,20.20
2022-10-21T05:35:57.014Z,16.45
2022-10-21T05:38:24.291Z,22.45
2022-10-21T05:40:51.084Z,19.65
2022-10-21T05:43:17.805Z,19.17
2022-10-21T05:45:44.596Z,16.70
2022-10-21T05:48:14.597Z,16.55
2022-10-21T05:50:45.796Z,22.35
2022-10-21T05:53:13.642Z,17.40
2022-10-21T05:55:40.532Z,12.75
2022-10-21T05:58:07.861Z,16.60
2022-10-21T06:00:35.315Z,21.98
2022-10-21T06:03:02.213Z,18.55
2022-10-21T06:05:28.969Z,16.52
2022-10-21T06:07:55.688Z,15.45
2022-10-21T06:10:26.679Z,20.27
2022-10-21T06:12:56.277Z,14.90
2022-10-21T06:15:23.113Z,20.58
2022-10-21T06:17:51.762Z,22.45
2022-10-21T06:20:18.703Z,14.48
2022-10-21T06:22:45.517Z,15.18
2022-10-21T06:25:12.677Z,19.13
2022-10-21T06:27:40.199Z,22.67
2022-10-21T06:30:07.831Z,16.30
2022-10-21T06:32:35.695Z,16.55
2022-10-21T06:35:02.622Z,16.50
2022-10-21T06:37:29.565Z,16.65
2022-10-21T06:39:56.917Z,15.18
2022-10-21T06:42:23.646Z,14.15
2022-10-21T06:44:50.427Z,19.83
2022-10-21T06:47:17.559Z,16.02
2022-10-21T06:49:44.318Z,17.35
2022-10-21T06:52:11.120Z,15.40
2022-10-21T06:54:37.948Z,14.88
2022-10-21T06:57:05.081Z,18.25
2022-10-21T06:59:32.272Z,13.50
2022-10-21T07:02:00.950Z,17.92
2022-10-21T07:04:29.244Z,20.63
2022-10-21T07:06:56.412Z,16.13
2022-10-21T07:09:23.272Z,20.08
2022-10-21T07:11:50.498Z,19.38
2022-10-21T07:14:17.608Z,25.38
2022-10-21T07:16:44.730Z,19.75
2022-10-21T07:19:11.737Z,24.60
2022-10-21T07:21:38.554Z,12.88
2022-10-21T07:24:05.685Z,18.02
2022-10-21T07:26:33.919Z,19.15
2022-10-21T07:29:01.521Z,20.48
2022-10-21T07:31:31.723Z,18.63
2022-10-21T07:33:59.987Z,22.00
2022-10-21T07:36:29.508Z,20.48
2022-10-21T07:39:00.196Z,18.67
2022-10-21T07:41:34.656Z,19.52
2022-10-21T07:44:02.239Z,18.67
2022-10-21T07:46:29.400Z,22.15
2022-10-21T07:48:57.185Z,17.83
2022-10-21T07:51:28.490Z,18.17
2022-10-21T07:53:57.024Z,14.82
2022-10-21T07:56:27.108Z,13.48
2022-10-21T07:58:54.117Z,15.60
2022-10-21T08:01:21.284Z,21.55
2022-10-21T08:03:48.137Z,16.95
2022-10-21T08:06:17.632Z,18.30
2022-10-21T08:08:45.831Z,12.23
2022-10-21T08:11:21.521Z,13.43
2022-10-21T08:13:48.381Z,14.18
2022-10-21T08:16:15.645Z,14.40
2022-10-21T08:18:42.393Z,12.27
2022-10-21T08:21:09.262Z,15.00
2022-10-21T08:23:36.425Z,14.18
2022-10-21T08:26:04.162Z,10.05
2022-10-21T08:28:31.615Z,15.10
2022-10-21T08:31:10.645Z,13.05
2022-10-21T08:33:38.470Z,13.48
2022-10-21T08:36:07.147Z,10.93
2022-10-21T08:38:33.969Z,9.98
2022-10-21T08:41:01.564Z,12.32
2022-10-21T08:43:34.381Z,15.13
2022-10-21T08:46:19.073Z,18.48
2022-10-21T08:48:51.417Z,20.85
2022-10-21T08:51:51.167Z,12.75
2022-10-21T08:54:29.813Z,11.98
2022-10-21T08:57:00.371Z,23.33
2022-10-21T08:59:27.684Z,14.35
2022-10-21T09:02:00.840Z,14.57
2022-10-21T09:04:40.566Z,11.63
2022-10-21T09:07:14.394Z,16.90
2022-10-21T09:09:52.083Z,13.57
2022-10-21T09:12:37.955Z,12.85
2022-10-21T09:15:25.432Z,14.27
2022-10-21T09:17:58.242Z,12.05
2022-10-21T09:21:05.663Z,12.35
2022-10-21T09:23:52.200Z,13.48
2022-10-21T09:26:30.172Z,15.77
2022-10-21T09:28:57.605Z,12.95
2022-10-21T09:31:24.743Z,16.45
2022-10-21T09:33:59.644Z,13.57
2022-10-21T09:36:34.127Z,15.35
2022-10-21T09:39:14.873Z,12.77
2022-10-21T09:41:49.701Z,13.85
2022-10-21T09:44:20.869Z,14.07
2022-10-21T09:46:50.067Z,12.52
2022-10-21T09:49:54.729Z,13.20
2022-10-21T09:52:20.914Z,14.25
2022-10-21T09:54:48.076Z,13.70
2022-10-21T09:57:17.213Z,17.65
2022-10-21T09:59:52.735Z,12.70
2022-10-21T10:02:30.269Z,17.58
2022-10-21T10:04:57.687Z,12.50
2022-10-21T10:07:37.216Z,14.73
2022-10-21T10:10:24.897Z,15.57
2022-10-21T10:12:59.261Z,15.45
2022-10-21T10:15:35.313Z,13.43
2022-10-21T10:18:03.450Z,12.73
2022-10-21T10:20:30.629Z,13.27
2022-10-21T10:23:00.397Z,13.15
2022-10-21T10:25:34.838Z,13.38
2022-10-21T10:28:18.441Z,11.18
2022-10-21T10:30:45.279Z,14.30
2022-10-21T10:33:34.539Z,13.70
2022-10-21T10:36:09.378Z,12.55
2022-10-21T10:38:51.918Z,14.50
2022-10-21T10:41:19.429Z,9.88
2022-10-21T10:43:51.015Z,9.30
2022-10-21T10:46:31.771Z,11.10
2022-10-21T10:49:16.873Z,12.60
2022-10-21T10:51:48.027Z,11.07
2022-10-21T10:54:28.768Z,11.30
2022-10-21T10:57:02.387Z,10.70
2022-10-21T10:59:43.341Z,7.18
2022-10-21T11:02:10.402Z,7.97
2022-10-21T11:05:00.026Z,10.82
2022-10-21T11:07:48.353Z,10.23
2022-10-21T11:10:35.026Z,7.07
2022-10-21T11:13:04.406Z,9.32
2022-10-21T11:15:38.400Z,10.43
2022-10-21T11:18:33.138Z,9.27
2022-10-21T11:21:26.755Z,17.67
2022-10-21T11:24:05.213Z,11.45
2022-10-21T11:26:47.120Z,11.07
2022-10-21T11:29:36.297Z,13.43
2022-10-21T11:32:15.500Z,14.25
2022-10-21T11:34:47.970Z,14.15
2022-10-21T11:37:39.653Z,14.07
2022-10-21T11:40:31.356Z,14.77
2022-10-21T11:43:22.583Z,15.85
2022-10-21T11:46:04.079Z,13.13
2022-10-21T11:49:06.295Z,14.65
2022-10-21T11:51:48.377Z,12.20
2022-10-21T11:54:57.513Z,13.98
2022-10-21T11:57:56.822Z,14.98
2022-10-21T12:00:26.386Z,13.23
2022-10-21T12:03:07.656Z,13.63
2022-10-21T12:05:37.504Z,10.40
2022-10-21T12:08:14.442Z,11.93
2022-10-21T12:10:54.588Z,12.70
2022-10-21T12:13:32.780Z,11.32
2022-10-21T12:16:16.142Z,17.98
2022-10-21T12:18:55.679Z,17.00
2022-10-21T12:21:27.726Z,13.93
2022-10-21T12:24:04.173Z,14.02
2022-10-21T12:27:06.148Z,14.20
2022-10-21T12:29:59.631Z,12.63
2022-10-21T12:32:40.429Z,12.40
2022-10-21T12:35:13.404Z,20.42
2022-10-21T12:38:05.545Z,14.13
2022-10-21T12:40:33.127Z,12.90
2022-10-21T12:43:03.266Z,14.73
2022-10-21T12:45:36.602Z,15.52
2022-10-21T12:48:44.460Z,15.88
2022-10-21T12:51:28.063Z,20.52
2022-10-21T12:54:02.022Z,18.77
2022-10-21T12:56:35.167Z,19.45
2022-10-21T12:59:06.859Z,20.98
2022-10-21T13:01:33.525Z,18.25
2022-10-21T13:04:00.431Z,16.60
2022-10-21T13:06:53.627Z,15.75
2022-10-21T13:09:56.916Z,14.82
2022-10-21T13:12:23.775Z,15.88
2022-10-21T13:14:51.531Z,17.63
2022-10-21T13:17:20.962Z,13.93
2022-10-21T13:19:52.289Z,20.70
2022-10-21T13:22:34.523Z,17.65
2022-10-21T13:25:16.293Z,20.08
2022-10-21T13:27:47.693Z,14.90
2022-10-21T13:30:33.445Z,19.00
2022-10-21T13:33:04.347Z,17.15
2022-10-21T13:35:53.980Z,21.90
2022-10-21T13:38:26.452Z,18.58
2022-10-21T13:40:54.806Z,13.52
2022-10-21T13:43:28.751Z,17.00
2022-10-21T13:46:27.201Z,13.23
2022-10-21T13:48:54.438Z,16.80
2022-10-21T13:51:21.209Z,16.52
2022-10-21T13:53:49.014Z,17.77
2022-10-21T13:56:23.245Z,18.30
2022-10-21T13:58:50.097Z,19.20
2022-10-21T14:01:25.378Z,15.48
2022-10-21T14:03:54.967Z,21.90
2022-10-21T14:06:35.923Z,14.10
2022-10-21T14:09:07.975Z,19.25
2022-10-21T14:11:42.163Z,15.45
2022-10-21T14:14:13.428Z,19.80
2022-10-21T14:16:49.305Z,20.42
2022-10-21T14:19:24.395Z,21.98
2022-10-21T14:21:54.677Z,21.08
2022-10-21T14:24:37.442Z,17.92
2022-10-21T14:27:05.577Z,21.88
2022-10-21T14:29:35.798Z,20.58
2022-10-21T14:32:04.245Z,18.88
2022-10-21T14:34:35.950Z,14.98
2022-10-21T14:37:19.802Z,23.55
2022-10-21T14:39:47.089Z,24.88
2022-10-21T14:42:20.252Z,18.20
2022-10-21T14:44:50.803Z,28.88
2022-10-21T14:47:26.024Z,20.38
2022-10-21T14:49:55.729Z,26.52
2022-10-21T14:52:35.617Z,36.25
2022-10-21T14:55:09.542Z,39.45
2022-10-21T14:57:39.535Z,120.00
2022-10-21T15:00:10.217Z,94.55
2022-10-21T15:02:38.817Z,57.00
2022-10-21T15:05:26.345Z,58.45
2022-10-21T15:08:22.758Z,48.65
2022-10-21T15:11:03.859Z,28.50
2022-10-21T15:13:32.349Z,27.15
2022-10-21T15:16:01.064Z,24.77
2022-10-21T15:18:43.191Z,25.17
2022-10-21T15:21:35.593Z,29.63
2022-10-21T15:24:03.812Z,25.35
2022-10-21T15:26:33.171Z,23.73
2022-10-21T15:29:00.401Z,34.40
2022-10-21T15:31:29.063Z,26.70
2022-10-21T15:33:57.431Z,30.17
2022-10-21T15:36:24.801Z,29.25
2022-10-21T15:38:51.780Z,24.85
2022-10-21T15:41:29.269Z,36.33
2022-10-21T15:43:59.646Z,34.67
2022-10-21T15:46:27.499Z,25.20
2022-10-21T15:48:54.401Z,28.45
2022-10-21T15:51:21.156Z,30.00
2022-10-21T15:53:48.248Z,26.08
2022-10-21T15:56:17.458Z,29.70
2022-10-21T15:58:44.704Z,31.27
2022-10-21T16:01:16.906Z,30.83
2022-10-21T16:03:44.997Z,31.83
2022-10-21T16:06:16.858Z,32.67
2022-10-21T16:08:43.805Z,40.42
2022-10-21T16:11:18.930Z,38.17
2022-10-21T16:13:52.596Z,37.10
2022-10-21T16:16:25.000Z,31.23
2022-10-21T16:18:53.252Z,37.10
2022-10-21T16:21:22.531Z,40.58
2022-10-21T16:23:50.184Z,34.55
2022-10-21T16:26:25.433Z,34.22
2022-10-21T16:28:54.053Z,31.92
2022-10-21T16:31:21.591Z,34.03
2022-10-21T16:33:48.735Z,30.58
2022-10-21T16:36:18.255Z,30.42
2022-10-21T16:38:47.089Z,36.63
2022-10-21T16:41:17.021Z,34.95
2022-10-21T16:43:44.300Z,32.17
2022-10-21T16:46:33.227Z,42.50
2022-10-21T16:49:02.836Z,46.22
2022-10-21T16:51:30.761Z,49.95
2022-10-21T16:53:57.657Z,37.83
2022-10-21T16:56:24.909Z,63.38
2022-10-21T16:58:52.584Z,67.00
2022-10-21T17:01:22.847Z,86.30
2022-10-21T17:03:49.909Z,87.05
2022-10-21T17:06:22.508Z,87.88
2022-10-21T17:08:50.537Z,87.85
2022-10-21T17:11:34.295Z,66.75
2022-10-21T17:14:03.389Z,75.35
2022-10-21T17:16:30.320Z,88.38
2022-10-21T17:18:57.069Z,76.22
2022-10-21T17:21:25.382Z,109.82
2022-10-21T17:23:52.954Z,97.88
2022-10-21T17:26:20.617Z,89.40
2022-10-21T17:28:47.765Z,88.05
2022-10-21T17:31:16.863Z,76.97
2022-10-21T17:33:44.487Z,64.00
2022-10-21T17:36:11.762Z,56.63
2022-10-21T17:38:39.711Z,61.08
2022-10-21T17:41:06.881Z,56.28
2022-10-21T17:43:33.597Z,58.38
2022-10-21T17:46:00.791Z,68.05
2022-10-21T17:48:27.926Z,45.65
2022-10-21T17:50:56.396Z,48.65
2022-10-21T17:53:23.329Z,42.15
2022-10-21T17:55:58.123Z,46.88
2022-10-21T17:58:24.897Z,49.05
2022-10-21T18:00:52.389Z,51.75
2022-10-21T18:03:19.255Z,42.47
2022-10-21T18:05:46.830Z,52.20
2022-10-21T18:08:13.985Z,46.42
2022-10-21T18:10:40.800Z,38.97
2022-10-21T18:13:07.598Z,46.92
2022-10-21T18:15:37.395Z,53.85
2022-10-21T18:18:04.164Z,58.78
2022-10-21T18:20:30.853Z,55.75
2022-10-21T18:22:58.045Z,57.58
2022-10-21T18:25:24.727Z,54.35
2022-10-21T18:27:51.454Z,58.10
2022-10-21T18:30:18.799Z,56.28
2022-10-21T18:32:45.962Z,76.43
2022-10-21T18:35:12.673Z,57.17
2022-10-21T18:37:39.787Z,61.85
2022-10-21T18:40:07.900Z,53.00
2022-10-21T18:42:34.759Z,61.40
2022-10-21T18:45:01.470Z,47.28
2022-10-21T18:47:28.209Z,46.83
2022-10-21T18:49:55.393Z,53.75
2022-10-21T18:52:22.128Z,48.35
2022-10-21T18:54:48.897Z,51.45
2022-10-21T18:57:15.690Z,54.33
2022-10-21T18:59:42.455Z,62.42
2022-10-21T19:02:19.728Z,60.45
2022-10-21T19:04:47.391Z,53.75
2022-10-21T19:07:14.880Z,54.78
2022-10-21T19:09:41.818Z,59.00
2022-10-21T19:12:11.966Z,60.60
2022-10-21T19:14:41.234Z,60.28
2022-10-21T19:17:09.836Z,54.83
2022-10-21T19:19:39.314Z,58.10
2022-10-21T19:22:06.725Z,55.95
2022-10-21T19:24:33.863Z,47.50
2022-10-21T19:27:00.617Z,57.28
2022-10-21T19:29:27.496Z,49.58
2022-10-21T19:31:56.713Z,49.45
2022-10-21T19:34:26.757Z,59.10
2022-10-21T19:36:54.253Z,59.38
2022-10-21T19:39:21.318Z,53.42
2022-10-21T19:41:48.288Z,56.78
2022-10-21T19:44:15.178Z,49.78
2022-10-21T19:46:42.564Z,48.25
2022-10-21T19:49:12.908Z,55.97
2022-10-21T19:51:39.655Z,44.50
2022-10-21T19:54:08.292Z,48.90
2022-10-21T19:56:35.551Z,43.10
2022-10-21T19:59:03.483Z,44.13
2022-10-21T20:01:31.577Z,35.83
2022-10-21T20:04:00.611Z,40.30
2022-10-21T20:06:30.661Z,46.38
2022-10-21T20:08:59.627Z,43.55
2022-10-21T20:11:26.801Z,51.92
2022-10-21T20:13:53.907Z,38.60
2022-10-21T20:16:41.868Z,45.78
2022-10-21T20:19:10.428Z,45.38
2022-10-21T20:21:37.450Z,35.05
2022-10-21T20:24:05.198Z,48.35
2022-10-21T20:26:32.096Z,44.85
2022-10-21T20:29:00.974Z,45.42
2022-10-21T20:31:28.730Z,43.22
2022-10-21T20:33:56.624Z,48.28
2022-10-21T20:36:26.082Z,36.63
2022-10-21T20:38:55.206Z,41.92
2022-10-21T20:41:30.711Z,36.25
2022-10-21T20:43:58.405Z,38.75
2022-10-21T20:46:26.636Z,35.90
2022-10-21T20:48:54.641Z,37.83
2022-10-21T20:51:29.194Z,35.70
2022-10-21T20:54:03.094Z,37.90
2022-10-21T20:56:33.065Z,32.60
2022-10-21T20:59:00.397Z,36.20
2022-10-21T21:01:32.539Z,30.13
2022-10-21T21:04:06.745Z,28.33
2022-10-21T21:06:43.296Z,27.73
2022-10-21T21:14:26.339Z,30.90
2022-10-21T21:16:54.559Z,29.15
2022-10-21T21:19:21.626Z,27.80
2022-10-21T21:21:48.705Z,34.13
2022-10-21T21:24:15.852Z,30.30
2022-10-21T21:26:42.963Z,32.78
2022-10-21T21:29:10.649Z,44.00
2022-10-21T21:31:38.920Z,27.33
2022-10-21T21:34:07.033Z,33.83
2022-10-21T21:36:34.501Z,34.17
2022-10-21T21:39:01.732Z,33.40
2022-10-21T21:41:28.923Z,32.30
2022-10-21T21:43:56.928Z,31.38
2022-10-21T21:46:24.795Z,36.60
2022-10-21T21:48:59.549Z,28.83
2022-10-21T21:51:31.132Z,30.80
2022-10-21T21:53:59.133Z,35.40
2022-10-21T21:56:27.907Z,35.75
2022-10-21T21:58:56.080Z,43.95
2022-10-21T22:01:28.386Z,35.38
2022-10-21T22:03:56.021Z,32.22
2022-10-21T22:08:53.144Z,28.48
2022-10-21T22:11:25.071Z,40.63
2022-10-21T22:13:52.891Z,32.25
2022-10-21T22:16:22.267Z,34.28
2022-10-21T22:18:49.388Z,42.30
2022-10-21T22:21:17.841Z,46.03
2022-10-21T22:23:45.467Z,42.13
2022-10-21T22:26:14.077Z,38.63
2022-10-21T22:28:41.488Z,44.38
2022-10-21T22:31:11.589Z,45.97
2022-10-21T22:33:39.266Z,42.20
2022-10-21T22:36:06.831Z,37.20
2022-10-21T22:38:33.851Z,47.03
2022-10-21T22:41:02.445Z,36.47
2022-10-21T22:43:30.101Z,33.50
2022-10-21T22:46:05.162Z,35.60
2022-10-21T22:48:42.314Z,49.70
2022-10-21T22:51:09.214Z,45.03
2022-10-21T22:53:36.787Z,66.47
2022-10-21T22:56:06.809Z,52.17
2022-10-21T22:58:33.583Z,42.08
2022-10-21T23:01:05.569Z,50.28
2022-10-21T23:03:32.330Z,36.40
2022-10-21T23:05:59.062Z,44.95
2022-10-21T23:08:25.870Z,37.25
2022-10-21T23:10:52.841Z,40.65
2022-10-21T23:13:19.713Z,36.85
2022-10-21T23:15:49.759Z,40.13
2022-10-21T23:18:17.549Z,41.10
2022-10-21T23:20:44.492Z,42.25
2022-10-21T23:23:11.434Z,46.80
2022-10-21T23:25:38.281Z,42.08
2022-10-21T23:28:05.242Z,38.50
2022-10-21T23:30:32.109Z,46.42
2022-10-21T23:32:58.869Z,39.15
2022-10-21T23:35:26.185Z,39.20
2022-10-21T23:37:52.959Z,31.77
2022-10-21T23:40:19.708Z,30.30
2022-10-21T23:42:46.749Z,28.65
2022-10-21T23:45:13.533Z,30.25
2022-10-21T23:47:40.779Z,24.23
2022-10-21T23:50:08.874Z,26.52
2022-10-21T23:52:36.579Z,26.48
2022-10-21T23:55:05.227Z,26.67
2022-10-21T23:57:32.340Z,25.92
2022-10-21T23:59:59.125Z,34.35
